sensor_id;sensor_type;location;lat;lon;timestamp;P1;durP1;ratioP1;P2;durP2;ratioP2
11823;SDS011;5969;50.780;7.726;2024-01-06T00:01:49;5.85;;;2.00;;
11823;SDS011;5969;50.780;7.726;2024-01-06T00:04:18;3.72;;;2.17;;
11823;SDS011;5969;50.780;7.726;2024-01-06T00:06:47;3.80;;;2.05;;
11823;SDS011;5969;50.780;7.726;2024-01-06T00:09:14;3.63;;;2.08;;
11823;SDS011;5969;50.780;7.726;2024-01-06T00:11:41;4.70;;;1.90;;
11823;SDS011;5969;50.780;7.726;2024-01-06T00:14:08;3.28;;;1.65;;
11823;SDS011;5969;50.780;7.726;2024-01-06T00:16:37;4.07;;;1.90;;
11823;SDS011;5969;50.780;7.726;2024-01-06T00:19:04;5.05;;;1.67;;
11823;SDS011;5969;50.780;7.726;2024-01-06T00:21:31;3.03;;;2.08;;
11823;SDS011;5969;50.780;7.726;2024-01-06T00:24:02;5.10;;;2.60;;
11823;SDS011;5969;50.780;7.726;2024-01-06T00:26:30;2.63;;;2.05;;
11823;SDS011;5969;50.780;7.726;2024-01-06T00:29:01;3.20;;;2.10;;
11823;SDS011;5969;50.780;7.726;2024-01-06T00:31:28;4.32;;;2.10;;
11823;SDS011;5969;50.780;7.726;2024-01-06T00:33:55;5.22;;;2.38;;
11823;SDS011;5969;50.780;7.726;2024-01-06T00:36:23;3.72;;;2.17;;
11823;SDS011;5969;50.780;7.726;2024-01-06T00:38:50;3.35;;;2.15;;
11823;SDS011;5969;50.780;7.726;2024-01-06T00:41:18;3.15;;;2.00;;
11823;SDS011;5969;50.780;7.726;2024-01-06T00:43:45;3.40;;;2.30;;
11823;SDS011;5969;50.780;7.726;2024-01-06T00:46:12;4.20;;;2.13;;
11823;SDS011;5969;50.780;7.726;2024-01-06T00:48:42;4.82;;;2.40;;
11823;SDS011;5969;50.780;7.726;2024-01-06T00:51:09;5.07;;;2.30;;
11823;SDS011;5969;50.780;7.726;2024-01-06T00:53:36;3.95;;;2.60;;
11823;SDS011;5969;50.780;7.726;2024-01-06T00:56:03;3.50;;;2.03;;
11823;SDS011;5969;50.780;7.726;2024-01-06T00:58:32;5.30;;;2.13;;
11823;SDS011;5969;50.780;7.726;2024-01-06T01:00:59;3.95;;;2.08;;
11823;SDS011;5969;50.780;7.726;2024-01-06T01:03:28;4.72;;;2.45;;
11823;SDS011;5969;50.780;7.726;2024-01-06T01:05:55;4.22;;;2.30;;
11823;SDS011;5969;50.780;7.726;2024-01-06T01:08:22;5.50;;;2.50;;
11823;SDS011;5969;50.780;7.726;2024-01-06T01:10:50;4.53;;;2.38;;
11823;SDS011;5969;50.780;7.726;2024-01-06T01:13:17;3.75;;;2.20;;
11823;SDS011;5969;50.780;7.726;2024-01-06T01:15:45;4.85;;;2.30;;
11823;SDS011;5969;50.780;7.726;2024-01-06T01:18:15;3.35;;;2.45;;
11823;SDS011;5969;50.780;7.726;2024-01-06T01:20:42;7.55;;;2.25;;
11823;SDS011;5969;50.780;7.726;2024-01-06T01:23:09;4.65;;;1.88;;
11823;SDS011;5969;50.780;7.726;2024-01-06T01:25:36;2.30;;;1.98;;
11823;SDS011;5969;50.780;7.726;2024-01-06T01:28:03;4.43;;;1.90;;
11823;SDS011;5969;50.780;7.726;2024-01-06T01:30:31;3.80;;;2.15;;
11823;SDS011;5969;50.780;7.726;2024-01-06T01:32:59;3.67;;;1.98;;
11823;SDS011;5969;50.780;7.726;2024-01-06T01:35:26;4.32;;;2.10;;
11823;SDS011;5969;50.780;7.726;2024-01-06T01:37:53;3.40;;;1.90;;
11823;SDS011;5969;50.780;7.726;2024-01-06T01:40:21;3.78;;;2.08;;
11823;SDS011;5969;50.780;7.726;2024-01-06T01:42:48;3.00;;;2.20;;
11823;SDS011;5969;50.780;7.726;2024-01-06T01:45:15;4.28;;;2.20;;
11823;SDS011;5969;50.780;7.726;2024-01-06T01:47:42;5.80;;;2.65;;
11823;SDS011;5969;50.780;7.726;2024-01-06T01:50:12;4.35;;;2.50;;
11823;SDS011;5969;50.780;7.726;2024-01-06T01:52:39;5.47;;;2.22;;
11823;SDS011;5969;50.780;7.726;2024-01-06T01:55:07;4.00;;;2.70;;
11823;SDS011;5969;50.780;7.726;2024-01-06T01:57:35;4.63;;;2.15;;
11823;SDS011;5969;50.780;7.726;2024-01-06T02:00:02;3.08;;;2.15;;
11823;SDS011;5969;50.780;7.726;2024-01-06T02:02:29;5.18;;;2.20;;
11823;SDS011;5969;50.780;7.726;2024-01-06T02:04:57;4.00;;;2.60;;
11823;SDS011;5969;50.780;7.726;2024-01-06T02:07:25;5.35;;;2.40;;
11823;SDS011;5969;50.780;7.726;2024-01-06T02:09:53;7.30;;;2.55;;
11823;SDS011;5969;50.780;7.726;2024-01-06T02:12:20;5.45;;;2.25;;
11823;SDS011;5969;50.780;7.726;2024-01-06T02:15:02;5.05;;;2.42;;
11823;SDS011;5969;50.780;7.726;2024-01-06T02:17:30;4.68;;;2.40;;
11823;SDS011;5969;50.780;7.726;2024-01-06T02:20:07;7.97;;;2.50;;
11823;SDS011;5969;50.780;7.726;2024-01-06T02:22:36;5.13;;;2.30;;
11823;SDS011;5969;50.780;7.726;2024-01-06T02:25:05;3.58;;;2.13;;
11823;SDS011;5969;50.780;7.726;2024-01-06T02:27:37;4.25;;;2.30;;
11823;SDS011;5969;50.780;7.726;2024-01-06T02:30:05;3.72;;;2.15;;
11823;SDS011;5969;50.780;7.726;2024-01-06T02:32:32;5.53;;;2.58;;
11823;SDS011;5969;50.780;7.726;2024-01-06T02:34:59;4.82;;;2.22;;
11823;SDS011;5969;50.780;7.726;2024-01-06T02:37:26;4.07;;;2.00;;
11823;SDS011;5969;50.780;7.726;2024-01-06T02:39:55;3.75;;;2.53;;
11823;SDS011;5969;50.780;7.726;2024-01-06T02:42:22;2.22;;;1.90;;
11823;SDS011;5969;50.780;7.726;2024-01-06T02:44:50;2.83;;;2.10;;
11823;SDS011;5969;50.780;7.726;2024-01-06T02:50:17;4.38;;;2.30;;
11823;SDS011;5969;50.780;7.726;2024-01-06T02:52:44;5.00;;;2.35;;
11823;SDS011;5969;50.780;7.726;2024-01-06T02:55:13;3.25;;;2.13;;
11823;SDS011;5969;50.780;7.726;2024-01-06T02:57:40;5.13;;;1.98;;
11823;SDS011;5969;50.780;7.726;2024-01-06T03:00:07;5.63;;;2.42;;
11823;SDS011;5969;50.780;7.726;2024-01-06T03:02:48;3.03;;;2.08;;
11823;SDS011;5969;50.780;7.726;2024-01-06T03:05:15;5.25;;;2.22;;
11823;SDS011;5969;50.780;7.726;2024-01-06T03:07:42;3.53;;;2.13;;
11823;SDS011;5969;50.780;7.726;2024-01-06T03:10:09;3.90;;;2.22;;
11823;SDS011;5969;50.780;7.726;2024-01-06T03:12:38;3.33;;;2.00;;
11823;SDS011;5969;50.780;7.726;2024-01-06T03:15:20;3.22;;;2.00;;
11823;SDS011;5969;50.780;7.726;2024-01-06T03:17:47;2.45;;;1.95;;
11823;SDS011;5969;50.780;7.726;2024-01-06T03:20:14;3.08;;;2.00;;
11823;SDS011;5969;50.780;7.726;2024-01-06T03:25:27;3.00;;;1.98;;
11823;SDS011;5969;50.780;7.726;2024-01-06T03:27:56;2.90;;;1.90;;
11823;SDS011;5969;50.780;7.726;2024-01-06T03:30:23;2.72;;;1.83;;
11823;SDS011;5969;50.780;7.726;2024-01-06T03:32:50;3.13;;;2.10;;
11823;SDS011;5969;50.780;7.726;2024-01-06T03:35:18;5.13;;;2.10;;
11823;SDS011;5969;50.780;7.726;2024-01-06T03:37:45;2.38;;;2.10;;
11823;SDS011;5969;50.780;7.726;2024-01-06T03:40:12;2.28;;;2.05;;
11823;SDS011;5969;50.780;7.726;2024-01-06T03:42:39;2.90;;;1.98;;
11823;SDS011;5969;50.780;7.726;2024-01-06T03:45:08;2.80;;;2.10;;
11823;SDS011;5969;50.780;7.726;2024-01-06T03:47:35;2.95;;;1.90;;
11823;SDS011;5969;50.780;7.726;2024-01-06T03:50:03;3.25;;;2.00;;
11823;SDS011;5969;50.780;7.726;2024-01-06T03:52:30;3.55;;;2.05;;
11823;SDS011;5969;50.780;7.726;2024-01-06T03:58:00;2.85;;;1.95;;
11823;SDS011;5969;50.780;7.726;2024-01-06T04:00:29;2.83;;;2.15;;
11823;SDS011;5969;50.780;7.726;2024-01-06T04:02:56;3.60;;;2.22;;
11823;SDS011;5969;50.780;7.726;2024-01-06T04:05:23;5.20;;;2.30;;
11823;SDS011;5969;50.780;7.726;2024-01-06T04:07:50;2.92;;;1.80;;
11823;SDS011;5969;50.780;7.726;2024-01-06T04:10:18;3.38;;;2.28;;
11823;SDS011;5969;50.780;7.726;2024-01-06T04:12:45;3.47;;;1.95;;
11823;SDS011;5969;50.780;7.726;2024-01-06T04:15:12;2.50;;;1.60;;
11823;SDS011;5969;50.780;7.726;2024-01-06T04:20:27;3.50;;;2.10;;
11823;SDS011;5969;50.780;7.726;2024-01-06T04:22:55;3.53;;;2.35;;
11823;SDS011;5969;50.780;7.726;2024-01-06T04:25:22;4.22;;;2.17;;
11823;SDS011;5969;50.780;7.726;2024-01-06T04:27:49;4.93;;;2.10;;
11823;SDS011;5969;50.780;7.726;2024-01-06T04:30:17;3.45;;;2.30;;
11823;SDS011;5969;50.780;7.726;2024-01-06T04:32:50;3.58;;;2.13;;
11823;SDS011;5969;50.780;7.726;2024-01-06T04:35:23;2.72;;;2.15;;
11823;SDS011;5969;50.780;7.726;2024-01-06T04:37:52;4.90;;;2.58;;
11823;SDS011;5969;50.780;7.726;2024-01-06T04:40:19;3.17;;;2.20;;
11823;SDS011;5969;50.780;7.726;2024-01-06T04:42:47;2.80;;;1.90;;
11823;SDS011;5969;50.780;7.726;2024-01-06T04:45:15;3.67;;;2.10;;
11823;SDS011;5969;50.780;7.726;2024-01-06T04:47:44;4.00;;;2.30;;
11823;SDS011;5969;50.780;7.726;2024-01-06T04:50:11;3.55;;;2.13;;
11823;SDS011;5969;50.780;7.726;2024-01-06T04:52:38;3.22;;;2.00;;
11823;SDS011;5969;50.780;7.726;2024-01-06T04:55:07;3.50;;;1.90;;
11823;SDS011;5969;50.780;7.726;2024-01-06T04:57:34;5.05;;;2.85;;
11823;SDS011;5969;50.780;7.726;2024-01-06T05:00:02;3.42;;;2.30;;
11823;SDS011;5969;50.780;7.726;2024-01-06T05:02:46;3.72;;;2.45;;
11823;SDS011;5969;50.780;7.726;2024-01-06T05:05:14;3.55;;;2.22;;
11823;SDS011;5969;50.780;7.726;2024-01-06T05:07:42;6.70;;;2.60;;
11823;SDS011;5969;50.780;7.726;2024-01-06T05:10:10;5.03;;;2.13;;
11823;SDS011;5969;50.780;7.726;2024-01-06T05:12:38;2.88;;;2.10;;
11823;SDS011;5969;50.780;7.726;2024-01-06T05:15:08;5.82;;;2.83;;
11823;SDS011;5969;50.780;7.726;2024-01-06T05:17:39;4.63;;;2.05;;
11823;SDS011;5969;50.780;7.726;2024-01-06T05:20:06;3.15;;;2.20;;
11823;SDS011;5969;50.780;7.726;2024-01-06T05:22:34;2.63;;;2.20;;
11823;SDS011;5969;50.780;7.726;2024-01-06T05:25:01;2.70;;;2.30;;
11823;SDS011;5969;50.780;7.726;2024-01-06T05:27:30;3.75;;;2.38;;
11823;SDS011;5969;50.780;7.726;2024-01-06T05:29:59;4.95;;;2.33;;
11823;SDS011;5969;50.780;7.726;2024-01-06T05:32:26;2.55;;;2.25;;
11823;SDS011;5969;50.780;7.726;2024-01-06T05:34:54;3.70;;;2.53;;
11823;SDS011;5969;50.780;7.726;2024-01-06T05:37:21;4.25;;;2.60;;
11823;SDS011;5969;50.780;7.726;2024-01-06T05:39:48;3.58;;;2.60;;
11823;SDS011;5969;50.780;7.726;2024-01-06T05:42:25;4.00;;;2.75;;
11823;SDS011;5969;50.780;7.726;2024-01-06T05:44:54;5.00;;;2.80;;
11823;SDS011;5969;50.780;7.726;2024-01-06T05:47:21;4.35;;;2.42;;
11823;SDS011;5969;50.780;7.726;2024-01-06T05:49:49;4.00;;;2.90;;
11823;SDS011;5969;50.780;7.726;2024-01-06T05:52:16;3.80;;;2.40;;
11823;SDS011;5969;50.780;7.726;2024-01-06T05:54:43;3.72;;;2.47;;
11823;SDS011;5969;50.780;7.726;2024-01-06T05:57:10;3.83;;;2.50;;
11823;SDS011;5969;50.780;7.726;2024-01-06T05:59:37;3.35;;;2.72;;
11823;SDS011;5969;50.780;7.726;2024-01-06T06:02:07;4.30;;;2.45;;
11823;SDS011;5969;50.780;7.726;2024-01-06T06:04:34;3.70;;;2.78;;
11823;SDS011;5969;50.780;7.726;2024-01-06T06:07:02;4.32;;;2.17;;
11823;SDS011;5969;50.780;7.726;2024-01-06T06:09:29;3.97;;;2.20;;
11823;SDS011;5969;50.780;7.726;2024-01-06T06:11:56;4.53;;;2.63;;
11823;SDS011;5969;50.780;7.726;2024-01-06T06:14:24;3.80;;;2.22;;
11823;SDS011;5969;50.780;7.726;2024-01-06T06:16:51;4.88;;;2.45;;
11823;SDS011;5969;50.780;7.726;2024-01-06T06:19:20;5.50;;;2.30;;
11823;SDS011;5969;50.780;7.726;2024-01-06T06:21:47;3.28;;;2.45;;
11823;SDS011;5969;50.780;7.726;2024-01-06T06:24:14;4.93;;;2.40;;
11823;SDS011;5969;50.780;7.726;2024-01-06T06:26:41;4.45;;;2.80;;
11823;SDS011;5969;50.780;7.726;2024-01-06T06:29:08;3.63;;;2.83;;
11823;SDS011;5969;50.780;7.726;2024-01-06T06:31:36;3.67;;;2.50;;
11823;SDS011;5969;50.780;7.726;2024-01-06T06:34:03;4.57;;;3.00;;
11823;SDS011;5969;50.780;7.726;2024-01-06T06:36:31;3.83;;;2.50;;
11823;SDS011;5969;50.780;7.726;2024-01-06T06:39:00;3.28;;;2.50;;
11823;SDS011;5969;50.780;7.726;2024-01-06T06:41:43;4.15;;;2.53;;
11823;SDS011;5969;50.780;7.726;2024-01-06T06:44:10;5.88;;;2.58;;
11823;SDS011;5969;50.780;7.726;2024-01-06T06:46:37;4.07;;;2.85;;
11823;SDS011;5969;50.780;7.726;2024-01-06T06:49:06;3.15;;;2.83;;
11823;SDS011;5969;50.780;7.726;2024-01-06T06:51:34;3.60;;;2.95;;
11823;SDS011;5969;50.780;7.726;2024-01-06T06:54:04;4.10;;;2.90;;
11823;SDS011;5969;50.780;7.726;2024-01-06T06:56:31;5.05;;;3.03;;
11823;SDS011;5969;50.780;7.726;2024-01-06T06:58:59;3.47;;;3.13;;
11823;SDS011;5969;50.780;7.726;2024-01-06T07:01:36;4.57;;;2.92;;
11823;SDS011;5969;50.780;7.726;2024-01-06T07:04:03;3.80;;;3.38;;
11823;SDS011;5969;50.780;7.726;2024-01-06T07:06:30;3.55;;;3.25;;
11823;SDS011;5969;50.780;7.726;2024-01-06T07:08:59;3.33;;;2.97;;
11823;SDS011;5969;50.780;7.726;2024-01-06T07:11:27;3.50;;;3.20;;
11823;SDS011;5969;50.780;7.726;2024-01-06T07:13:54;4.10;;;3.20;;
11823;SDS011;5969;50.780;7.726;2024-01-06T07:16:24;6.32;;;3.38;;
11823;SDS011;5969;50.780;7.726;2024-01-06T07:18:52;4.20;;;3.55;;
11823;SDS011;5969;50.780;7.726;2024-01-06T07:21:19;3.50;;;2.92;;
11823;SDS011;5969;50.780;7.726;2024-01-06T07:23:49;3.58;;;3.08;;
11823;SDS011;5969;50.780;7.726;2024-01-06T07:26:17;4.88;;;3.35;;
11823;SDS011;5969;50.780;7.726;2024-01-06T07:28:45;4.22;;;3.40;;
11823;SDS011;5969;50.780;7.726;2024-01-06T07:31:12;5.07;;;3.72;;
11823;SDS011;5969;50.780;7.726;2024-01-06T07:33:39;4.75;;;3.58;;
11823;SDS011;5969;50.780;7.726;2024-01-06T07:36:06;4.63;;;4.10;;
11823;SDS011;5969;50.780;7.726;2024-01-06T07:38:33;4.35;;;3.95;;
11823;SDS011;5969;50.780;7.726;2024-01-06T07:41:01;5.25;;;4.13;;
11823;SDS011;5969;50.780;7.726;2024-01-06T07:43:30;4.68;;;4.25;;
11823;SDS011;5969;50.780;7.726;2024-01-06T07:45:58;5.30;;;4.07;;
11823;SDS011;5969;50.780;7.726;2024-01-06T07:48:25;5.45;;;4.43;;
11823;SDS011;5969;50.780;7.726;2024-01-06T07:50:52;4.53;;;3.83;;
11823;SDS011;5969;50.780;7.726;2024-01-06T07:53:19;5.80;;;5.20;;
11823;SDS011;5969;50.780;7.726;2024-01-06T07:55:54;4.97;;;4.40;;
11823;SDS011;5969;50.780;7.726;2024-01-06T07:58:21;5.57;;;4.32;;
11823;SDS011;5969;50.780;7.726;2024-01-06T08:00:50;5.15;;;4.38;;
11823;SDS011;5969;50.780;7.726;2024-01-06T08:03:17;5.10;;;4.30;;
11823;SDS011;5969;50.780;7.726;2024-01-06T08:05:45;5.07;;;4.57;;
11823;SDS011;5969;50.780;7.726;2024-01-06T08:08:12;6.43;;;4.88;;
11823;SDS011;5969;50.780;7.726;2024-01-06T08:10:42;5.47;;;4.90;;
11823;SDS011;5969;50.780;7.726;2024-01-06T08:13:09;4.80;;;4.38;;
11823;SDS011;5969;50.780;7.726;2024-01-06T08:15:36;5.75;;;5.10;;
11823;SDS011;5969;50.780;7.726;2024-01-06T08:18:07;6.10;;;5.00;;
11823;SDS011;5969;50.780;7.726;2024-01-06T08:20:34;5.57;;;5.07;;
11823;SDS011;5969;50.780;7.726;2024-01-06T08:23:04;5.20;;;4.57;;
11823;SDS011;5969;50.780;7.726;2024-01-06T08:25:31;6.38;;;5.28;;
11823;SDS011;5969;50.780;7.726;2024-01-06T08:27:59;7.82;;;7.03;;
11823;SDS011;5969;50.780;7.726;2024-01-06T08:30:26;9.90;;;8.23;;
11823;SDS011;5969;50.780;7.726;2024-01-06T08:32:54;10.13;;;8.20;;
11823;SDS011;5969;50.780;7.726;2024-01-06T08:35:22;10.02;;;8.73;;
11823;SDS011;5969;50.780;7.726;2024-01-06T08:37:50;9.77;;;8.30;;
11823;SDS011;5969;50.780;7.726;2024-01-06T08:40:17;10.60;;;8.80;;
11823;SDS011;5969;50.780;7.726;2024-01-06T08:42:45;9.57;;;7.82;;
11823;SDS011;5969;50.780;7.726;2024-01-06T08:45:12;11.43;;;9.13;;
11823;SDS011;5969;50.780;7.726;2024-01-06T08:47:39;10.20;;;8.05;;
11823;SDS011;5969;50.780;7.726;2024-01-06T08:50:07;9.82;;;8.52;;
11823;SDS011;5969;50.780;7.726;2024-01-06T08:52:36;11.98;;;10.25;;
11823;SDS011;5969;50.780;7.726;2024-01-06T08:55:04;14.50;;;11.70;;
11823;SDS011;5969;50.780;7.726;2024-01-06T08:57:43;14.65;;;11.63;;
11823;SDS011;5969;50.780;7.726;2024-01-06T09:00:14;14.50;;;12.57;;
11823;SDS011;5969;50.780;7.726;2024-01-06T09:02:43;14.65;;;13.02;;
11823;SDS011;5969;50.780;7.726;2024-01-06T09:05:20;15.73;;;13.10;;
11823;SDS011;5969;50.780;7.726;2024-01-06T09:07:49;14.77;;;12.38;;
11823;SDS011;5969;50.780;7.726;2024-01-06T09:10:17;14.75;;;12.15;;
11823;SDS011;5969;50.780;7.726;2024-01-06T09:15:37;14.20;;;10.88;;
11823;SDS011;5969;50.780;7.726;2024-01-06T09:18:05;13.02;;;10.68;;
11823;SDS011;5969;50.780;7.726;2024-01-06T09:20:33;10.57;;;9.27;;
11823;SDS011;5969;50.780;7.726;2024-01-06T09:23:02;12.77;;;8.95;;
11823;SDS011;5969;50.780;7.726;2024-01-06T09:25:29;9.23;;;7.85;;
11823;SDS011;5969;50.780;7.726;2024-01-06T09:28:01;10.07;;;8.23;;
11823;SDS011;5969;50.780;7.726;2024-01-06T09:33:17;12.05;;;9.32;;
11823;SDS011;5969;50.780;7.726;2024-01-06T09:35:44;11.50;;;9.43;;
11823;SDS011;5969;50.780;7.726;2024-01-06T09:38:13;10.38;;;9.05;;
11823;SDS011;5969;50.780;7.726;2024-01-06T09:40:49;9.00;;;8.10;;
11823;SDS011;5969;50.780;7.726;2024-01-06T09:43:16;10.43;;;9.23;;
11823;SDS011;5969;50.780;7.726;2024-01-06T09:45:44;11.00;;;8.52;;
11823;SDS011;5969;50.780;7.726;2024-01-06T09:48:12;10.32;;;8.98;;
11823;SDS011;5969;50.780;7.726;2024-01-06T09:50:54;10.27;;;8.93;;
11823;SDS011;5969;50.780;7.726;2024-01-06T09:53:27;11.20;;;8.68;;
11823;SDS011;5969;50.780;7.726;2024-01-06T09:55:55;11.43;;;8.70;;
11823;SDS011;5969;50.780;7.726;2024-01-06T09:58:23;10.55;;;8.75;;
11823;SDS011;5969;50.780;7.726;2024-01-06T10:00:58;11.57;;;9.63;;
11823;SDS011;5969;50.780;7.726;2024-01-06T10:03:26;10.63;;;9.43;;
11823;SDS011;5969;50.780;7.726;2024-01-06T10:06:01;14.43;;;10.63;;
11823;SDS011;5969;50.780;7.726;2024-01-06T10:08:32;11.65;;;10.15;;
11823;SDS011;5969;50.780;7.726;2024-01-06T10:11:00;13.20;;;10.13;;
11823;SDS011;5969;50.780;7.726;2024-01-06T10:13:28;13.35;;;11.18;;
11823;SDS011;5969;50.780;7.726;2024-01-06T10:15:56;13.98;;;10.30;;
11823;SDS011;5969;50.780;7.726;2024-01-06T10:18:24;12.57;;;10.23;;
11823;SDS011;5969;50.780;7.726;2024-01-06T10:20:55;11.80;;;9.23;;
11823;SDS011;5969;50.780;7.726;2024-01-06T10:23:23;12.68;;;9.23;;
11823;SDS011;5969;50.780;7.726;2024-01-06T10:25:52;11.68;;;9.18;;
11823;SDS011;5969;50.780;7.726;2024-01-06T10:28:28;11.15;;;9.07;;
11823;SDS011;5969;50.780;7.726;2024-01-06T10:30:55;11.35;;;9.50;;
11823;SDS011;5969;50.780;7.726;2024-01-06T10:33:23;10.88;;;9.07;;
11823;SDS011;5969;50.780;7.726;2024-01-06T10:35:52;12.18;;;9.25;;
11823;SDS011;5969;50.780;7.726;2024-01-06T10:38:21;11.57;;;9.05;;
11823;SDS011;5969;50.780;7.726;2024-01-06T10:43:51;9.98;;;8.18;;
11823;SDS011;5969;50.780;7.726;2024-01-06T10:46:20;11.10;;;9.15;;
11823;SDS011;5969;50.780;7.726;2024-01-06T10:48:56;9.77;;;8.77;;
11823;SDS011;5969;50.780;7.726;2024-01-06T10:51:25;9.68;;;8.18;;
11823;SDS011;5969;50.780;7.726;2024-01-06T10:53:52;10.77;;;8.90;;
11823;SDS011;5969;50.780;7.726;2024-01-06T10:56:25;11.55;;;8.60;;
11823;SDS011;5969;50.780;7.726;2024-01-06T10:58:53;10.10;;;8.68;;
11823;SDS011;5969;50.780;7.726;2024-01-06T11:01:24;9.65;;;7.45;;
11823;SDS011;5969;50.780;7.726;2024-01-06T11:03:51;11.98;;;8.65;;
11823;SDS011;5969;50.780;7.726;2024-01-06T11:06:19;10.32;;;8.43;;
11823;SDS011;5969;50.780;7.726;2024-01-06T11:08:48;11.88;;;8.80;;
11823;SDS011;5969;50.780;7.726;2024-01-06T11:11:21;10.30;;;8.25;;
11823;SDS011;5969;50.780;7.726;2024-01-06T11:13:49;10.35;;;8.52;;
11823;SDS011;5969;50.780;7.726;2024-01-06T11:16:36;12.10;;;10.02;;
11823;SDS011;5969;50.780;7.726;2024-01-06T11:24:18;11.40;;;9.60;;
11823;SDS011;5969;50.780;7.726;2024-01-06T11:26:49;12.15;;;9.25;;
11823;SDS011;5969;50.780;7.726;2024-01-06T11:29:16;13.13;;;9.98;;
11823;SDS011;5969;50.780;7.726;2024-01-06T11:34:32;12.45;;;9.82;;
11823;SDS011;5969;50.780;7.726;2024-01-06T11:37:05;12.35;;;9.35;;
11823;SDS011;5969;50.780;7.726;2024-01-06T11:39:36;10.73;;;8.95;;
11823;SDS011;5969;50.780;7.726;2024-01-06T11:42:04;10.23;;;9.00;;
11823;SDS011;5969;50.780;7.726;2024-01-06T11:44:33;10.55;;;8.60;;
11823;SDS011;5969;50.780;7.726;2024-01-06T11:47:04;10.75;;;8.63;;
11823;SDS011;5969;50.780;7.726;2024-01-06T11:49:35;11.77;;;10.30;;
11823;SDS011;5969;50.780;7.726;2024-01-06T11:52:05;12.65;;;9.65;;
11823;SDS011;5969;50.780;7.726;2024-01-06T11:54:38;11.70;;;9.52;;
11823;SDS011;5969;50.780;7.726;2024-01-06T11:57:06;11.15;;;9.77;;
11823;SDS011;5969;50.780;7.726;2024-01-06T11:59:34;11.73;;;9.38;;
11823;SDS011;5969;50.780;7.726;2024-01-06T12:02:03;12.90;;;10.27;;
11823;SDS011;5969;50.780;7.726;2024-01-06T12:07:07;12.48;;;10.02;;
11823;SDS011;5969;50.780;7.726;2024-01-06T12:09:34;12.65;;;9.55;;
11823;SDS011;5969;50.780;7.726;2024-01-06T12:12:07;11.70;;;8.80;;
11823;SDS011;5969;50.780;7.726;2024-01-06T12:14:36;11.07;;;9.07;;
11823;SDS011;5969;50.780;7.726;2024-01-06T12:17:04;10.20;;;8.73;;
11823;SDS011;5969;50.780;7.726;2024-01-06T12:19:33;10.73;;;8.68;;
11823;SDS011;5969;50.780;7.726;2024-01-06T12:22:00;10.25;;;8.57;;
11823;SDS011;5969;50.780;7.726;2024-01-06T12:24:29;9.32;;;8.32;;
11823;SDS011;5969;50.780;7.726;2024-01-06T12:26:56;11.18;;;9.07;;
11823;SDS011;5969;50.780;7.726;2024-01-06T12:29:29;11.65;;;8.73;;
11823;SDS011;5969;50.780;7.726;2024-01-06T12:31:58;10.38;;;8.18;;
11823;SDS011;5969;50.780;7.726;2024-01-06T12:34:30;9.23;;;7.97;;
11823;SDS011;5969;50.780;7.726;2024-01-06T12:36:57;9.25;;;7.50;;
11823;SDS011;5969;50.780;7.726;2024-01-06T12:39:38;9.50;;;7.97;;
11823;SDS011;5969;50.780;7.726;2024-01-06T12:42:05;9.43;;;8.27;;
11823;SDS011;5969;50.780;7.726;2024-01-06T12:44:33;9.10;;;7.60;;
11823;SDS011;5969;50.780;7.726;2024-01-06T12:47:03;10.80;;;8.18;;
11823;SDS011;5969;50.780;7.726;2024-01-06T12:49:30;10.30;;;8.27;;
11823;SDS011;5969;50.780;7.726;2024-01-06T12:51:57;8.98;;;7.70;;
11823;SDS011;5969;50.780;7.726;2024-01-06T12:54:25;8.50;;;7.60;;
11823;SDS011;5969;50.780;7.726;2024-01-06T12:56:53;9.98;;;7.97;;
11823;SDS011;5969;50.780;7.726;2024-01-06T12:59:20;11.20;;;8.73;;
11823;SDS011;5969;50.780;7.726;2024-01-06T13:01:48;10.90;;;8.20;;
11823;SDS011;5969;50.780;7.726;2024-01-06T13:04:15;9.35;;;7.95;;
11823;SDS011;5969;50.780;7.726;2024-01-06T13:06:42;12.48;;;9.10;;
11823;SDS011;5969;50.780;7.726;2024-01-06T13:09:09;10.52;;;8.85;;
11823;SDS011;5969;50.780;7.726;2024-01-06T13:11:41;10.68;;;7.60;;
11823;SDS011;5969;50.780;7.726;2024-01-06T13:14:20;9.80;;;7.15;;
11823;SDS011;5969;50.780;7.726;2024-01-06T13:16:47;10.70;;;7.85;;
11823;SDS011;5969;50.780;7.726;2024-01-06T13:19:14;11.02;;;7.78;;
11823;SDS011;5969;50.780;7.726;2024-01-06T13:21:41;11.30;;;8.55;;
11823;SDS011;5969;50.780;7.726;2024-01-06T13:24:18;10.68;;;7.65;;
11823;SDS011;5969;50.780;7.726;2024-01-06T13:26:46;10.48;;;7.43;;
11823;SDS011;5969;50.780;7.726;2024-01-06T13:29:13;9.52;;;7.43;;
11823;SDS011;5969;50.780;7.726;2024-01-06T13:31:41;8.50;;;7.10;;
11823;SDS011;5969;50.780;7.726;2024-01-06T13:34:09;9.20;;;6.75;;
11823;SDS011;5969;50.780;7.726;2024-01-06T13:36:36;8.23;;;7.00;;
11823;SDS011;5969;50.780;7.726;2024-01-06T13:39:03;8.40;;;6.38;;
11823;SDS011;5969;50.780;7.726;2024-01-06T13:41:30;7.95;;;6.57;;
11823;SDS011;5969;50.780;7.726;2024-01-06T13:43:58;7.03;;;6.05;;
11823;SDS011;5969;50.780;7.726;2024-01-06T13:46:25;8.13;;;6.28;;
11823;SDS011;5969;50.780;7.726;2024-01-06T13:49:00;8.30;;;7.20;;
11823;SDS011;5969;50.780;7.726;2024-01-06T13:51:27;10.20;;;7.47;;
11823;SDS011;5969;50.780;7.726;2024-01-06T13:53:57;8.60;;;6.35;;
11823;SDS011;5969;50.780;7.726;2024-01-06T13:56:27;7.97;;;5.82;;
11823;SDS011;5969;50.780;7.726;2024-01-06T13:58:54;9.10;;;7.20;;
11823;SDS011;5969;50.780;7.726;2024-01-06T14:01:24;8.93;;;6.55;;
11823;SDS011;5969;50.780;7.726;2024-01-06T14:03:51;7.82;;;6.00;;
11823;SDS011;5969;50.780;7.726;2024-01-06T14:06:24;6.45;;;5.72;;
11823;SDS011;5969;50.780;7.726;2024-01-06T14:08:54;8.27;;;6.93;;
11823;SDS011;5969;50.780;7.726;2024-01-06T14:11:22;7.93;;;6.25;;
11823;SDS011;5969;50.780;7.726;2024-01-06T14:13:52;7.57;;;6.18;;
11823;SDS011;5969;50.780;7.726;2024-01-06T14:16:19;7.75;;;6.63;;
11823;SDS011;5969;50.780;7.726;2024-01-06T14:18:46;7.45;;;6.55;;
11823;SDS011;5969;50.780;7.726;2024-01-06T14:21:13;9.95;;;7.60;;
11823;SDS011;5969;50.780;7.726;2024-01-06T14:23:45;8.23;;;7.20;;
11823;SDS011;5969;50.780;7.726;2024-01-06T14:26:13;9.00;;;7.38;;
11823;SDS011;5969;50.780;7.726;2024-01-06T14:28:40;10.90;;;7.93;;
11823;SDS011;5969;50.780;7.726;2024-01-06T14:31:07;8.98;;;7.97;;
11823;SDS011;5969;50.780;7.726;2024-01-06T14:33:35;9.95;;;8.57;;
11823;SDS011;5969;50.780;7.726;2024-01-06T14:36:02;9.73;;;8.38;;
11823;SDS011;5969;50.780;7.726;2024-01-06T14:38:29;9.48;;;8.25;;
11823;SDS011;5969;50.780;7.726;2024-01-06T14:40:58;9.10;;;7.63;;
11823;SDS011;5969;50.780;7.726;2024-01-06T14:43:25;9.23;;;7.80;;
11823;SDS011;5969;50.780;7.726;2024-01-06T14:45:52;9.70;;;7.95;;
11823;SDS011;5969;50.780;7.726;2024-01-06T14:48:19;8.45;;;7.60;;
11823;SDS011;5969;50.780;7.726;2024-01-06T14:50:47;9.77;;;8.05;;
11823;SDS011;5969;50.780;7.726;2024-01-06T14:53:15;9.73;;;8.20;;
11823;SDS011;5969;50.780;7.726;2024-01-06T14:55:43;9.38;;;7.63;;
11823;SDS011;5969;50.780;7.726;2024-01-06T14:58:12;9.80;;;8.48;;
11823;SDS011;5969;50.780;7.726;2024-01-06T15:00:46;8.98;;;7.80;;
11823;SDS011;5969;50.780;7.726;2024-01-06T15:03:14;10.73;;;7.35;;
11823;SDS011;5969;50.780;7.726;2024-01-06T15:05:43;8.55;;;7.40;;
11823;SDS011;5969;50.780;7.726;2024-01-06T15:08:10;9.02;;;7.55;;
11823;SDS011;5969;50.780;7.726;2024-01-06T15:10:40;9.38;;;7.80;;
11823;SDS011;5969;50.780;7.726;2024-01-06T15:13:07;9.05;;;7.45;;
11823;SDS011;5969;50.780;7.726;2024-01-06T15:15:37;12.02;;;8.85;;
11823;SDS011;5969;50.780;7.726;2024-01-06T15:18:13;9.93;;;8.00;;
11823;SDS011;5969;50.780;7.726;2024-01-06T15:20:41;10.25;;;8.50;;
11823;SDS011;5969;50.780;7.726;2024-01-06T15:23:08;12.65;;;9.75;;
11823;SDS011;5969;50.780;7.726;2024-01-06T15:25:35;11.90;;;9.35;;
11823;SDS011;5969;50.780;7.726;2024-01-06T15:28:07;12.85;;;9.88;;
11823;SDS011;5969;50.780;7.726;2024-01-06T15:30:35;13.55;;;9.82;;
11823;SDS011;5969;50.780;7.726;2024-01-06T15:33:02;16.08;;;10.98;;
11823;SDS011;5969;50.780;7.726;2024-01-06T15:35:32;14.98;;;12.15;;
11823;SDS011;5969;50.780;7.726;2024-01-06T15:38:08;15.68;;;11.73;;